sensor_id;sensor_type;location;lat;lon;timestamp;P1;durP1;ratioP1;P2;durP2;ratioP2
41059;SDS011;26811;53.160;8.202;2022-08-20T00:02:21;92.03;;;33.35;;
41059;SDS011;26811;53.160;8.202;2022-08-20T00:07:22;92.40;;;32.38;;
41059;SDS011;26811;53.160;8.202;2022-08-20T00:12:23;118.15;;;36.38;;
41059;SDS011;26811;53.160;8.202;2022-08-20T00:17:23;112.80;;;36.55;;
41059;SDS011;26811;53.160;8.202;2022-08-20T00:22:24;114.25;;;35.90;;
41059;SDS011;26811;53.160;8.202;2022-08-20T00:27:26;126.85;;;37.10;;
41059;SDS011;26811;53.160;8.202;2022-08-20T00:32:27;110.53;;;36.67;;
41059;SDS011;26811;53.160;8.202;2022-08-20T00:37:27;121.03;;;38.40;;
41059;SDS011;26811;53.160;8.202;2022-08-20T00:42:28;114.35;;;36.25;;
41059;SDS011;26811;53.160;8.202;2022-08-20T00:47:29;120.65;;;38.13;;
41059;SDS011;26811;53.160;8.202;2022-08-20T00:52:29;119.05;;;36.92;;
41059;SDS011;26811;53.160;8.202;2022-08-20T00:57:34;117.32;;;37.03;;
41059;SDS011;26811;53.160;8.202;2022-08-20T01:02:39;106.10;;;34.80;;
41059;SDS011;26811;53.160;8.202;2022-08-20T01:12:45;107.93;;;36.03;;
41059;SDS011;26811;53.160;8.202;2022-08-20T01:17:48;118.72;;;37.90;;
41059;SDS011;26811;53.160;8.202;2022-08-20T01:22:54;110.88;;;34.20;;
41059;SDS011;26811;53.160;8.202;2022-08-20T01:28:18;115.72;;;35.67;;
41059;SDS011;26811;53.160;8.202;2022-08-20T01:33:22;118.80;;;36.67;;
41059;SDS011;26811;53.160;8.202;2022-08-20T01:38:23;113.78;;;35.42;;
41059;SDS011;26811;53.160;8.202;2022-08-20T01:43:24;101.78;;;33.92;;
41059;SDS011;26811;53.160;8.202;2022-08-20T01:48:25;108.93;;;33.90;;
41059;SDS011;26811;53.160;8.202;2022-08-20T01:53:29;121.18;;;37.70;;
41059;SDS011;26811;53.160;8.202;2022-08-20T01:58:33;119.88;;;35.60;;
41059;SDS011;26811;53.160;8.202;2022-08-20T02:03:36;128.75;;;38.50;;
41059;SDS011;26811;53.160;8.202;2022-08-20T02:08:37;127.95;;;39.45;;
41059;SDS011;26811;53.160;8.202;2022-08-20T02:13:37;130.02;;;38.35;;
41059;SDS011;26811;53.160;8.202;2022-08-20T02:18:39;137.30;;;41.22;;
41059;SDS011;26811;53.160;8.202;2022-08-20T02:23:40;140.40;;;42.42;;
41059;SDS011;26811;53.160;8.202;2022-08-20T02:28:40;153.38;;;43.00;;
41059;SDS011;26811;53.160;8.202;2022-08-20T02:33:41;147.90;;;42.03;;
41059;SDS011;26811;53.160;8.202;2022-08-20T02:38:43;162.02;;;46.63;;
41059;SDS011;26811;53.160;8.202;2022-08-20T02:48:46;158.70;;;43.97;;
41059;SDS011;26811;53.160;8.202;2022-08-20T02:53:46;178.77;;;45.50;;
41059;SDS011;26811;53.160;8.202;2022-08-20T02:58:47;172.02;;;45.10;;
41059;SDS011;26811;53.160;8.202;2022-08-20T03:03:47;159.95;;;46.00;;
41059;SDS011;26811;53.160;8.202;2022-08-20T03:08:48;179.88;;;48.30;;
41059;SDS011;26811;53.160;8.202;2022-08-20T03:13:49;167.13;;;46.60;;
41059;SDS011;26811;53.160;8.202;2022-08-20T03:18:51;177.17;;;46.87;;
41059;SDS011;26811;53.160;8.202;2022-08-20T03:23:51;183.07;;;50.53;;
41059;SDS011;26811;53.160;8.202;2022-08-20T03:28:52;188.60;;;48.70;;
41059;SDS011;26811;53.160;8.202;2022-08-20T03:33:52;190.07;;;50.13;;
41059;SDS011;26811;53.160;8.202;2022-08-20T03:38:53;186.57;;;49.22;;
41059;SDS011;26811;53.160;8.202;2022-08-20T03:43:59;200.98;;;52.05;;
41059;SDS011;26811;53.160;8.202;2022-08-20T03:48:59;213.70;;;50.72;;
41059;SDS011;26811;53.160;8.202;2022-08-20T03:54:00;209.82;;;52.40;;
41059;SDS011;26811;53.160;8.202;2022-08-20T03:59:01;213.23;;;54.28;;
41059;SDS011;26811;53.160;8.202;2022-08-20T04:04:02;214.63;;;54.45;;
41059;SDS011;26811;53.160;8.202;2022-08-20T04:09:02;206.98;;;52.60;;
41059;SDS011;26811;53.160;8.202;2022-08-20T04:14:03;210.98;;;52.22;;
41059;SDS011;26811;53.160;8.202;2022-08-20T04:19:04;194.65;;;50.25;;
41059;SDS011;26811;53.160;8.202;2022-08-20T04:24:05;184.38;;;48.10;;
41059;SDS011;26811;53.160;8.202;2022-08-20T04:29:05;179.57;;;47.47;;
41059;SDS011;26811;53.160;8.202;2022-08-20T04:34:06;172.40;;;46.13;;
41059;SDS011;26811;53.160;8.202;2022-08-20T04:39:07;172.60;;;47.33;;
41059;SDS011;26811;53.160;8.202;2022-08-20T04:44:08;167.23;;;44.95;;
41059;SDS011;26811;53.160;8.202;2022-08-20T04:49:10;169.38;;;45.67;;
41059;SDS011;26811;53.160;8.202;2022-08-20T04:54:11;169.20;;;46.30;;
41059;SDS011;26811;53.160;8.202;2022-08-20T04:59:13;148.60;;;43.33;;
41059;SDS011;26811;53.160;8.202;2022-08-20T05:04:13;157.18;;;43.38;;
41059;SDS011;26811;53.160;8.202;2022-08-20T05:09:14;150.20;;;41.47;;
41059;SDS011;26811;53.160;8.202;2022-08-20T05:14:14;139.98;;;40.60;;
41059;SDS011;26811;53.160;8.202;2022-08-20T05:19:15;122.57;;;38.63;;
41059;SDS011;26811;53.160;8.202;2022-08-20T05:24:16;115.97;;;35.00;;
41059;SDS011;26811;53.160;8.202;2022-08-20T05:29:16;118.68;;;36.63;;
41059;SDS011;26811;53.160;8.202;2022-08-20T05:34:17;97.95;;;31.25;;
41059;SDS011;26811;53.160;8.202;2022-08-20T05:39:19;98.40;;;31.58;;
41059;SDS011;26811;53.160;8.202;2022-08-20T05:44:20;94.07;;;28.35;;
41059;SDS011;26811;53.160;8.202;2022-08-20T05:49:21;93.00;;;28.55;;
41059;SDS011;26811;53.160;8.202;2022-08-20T05:54:21;82.85;;;25.67;;
41059;SDS011;26811;53.160;8.202;2022-08-20T05:59:23;72.75;;;24.50;;
41059;SDS011;26811;53.160;8.202;2022-08-20T06:04:23;68.20;;;23.38;;
41059;SDS011;26811;53.160;8.202;2022-08-20T06:09:25;70.53;;;22.10;;
41059;SDS011;26811;53.160;8.202;2022-08-20T06:14:26;70.95;;;21.35;;
41059;SDS011;26811;53.160;8.202;2022-08-20T06:19:27;56.72;;;20.73;;
41059;SDS011;26811;53.160;8.202;2022-08-20T06:24:27;69.22;;;20.05;;
41059;SDS011;26811;53.160;8.202;2022-08-20T06:29:28;64.60;;;17.30;;
41059;SDS011;26811;53.160;8.202;2022-08-20T06:34:29;58.10;;;15.95;;
41059;SDS011;26811;53.160;8.202;2022-08-20T06:39:29;48.58;;;13.60;;
41059;SDS011;26811;53.160;8.202;2022-08-20T06:44:30;48.75;;;13.35;;
41059;SDS011;26811;53.160;8.202;2022-08-20T06:49:33;42.35;;;12.27;;
41059;SDS011;26811;53.160;8.202;2022-08-20T06:54:35;54.58;;;12.10;;
41059;SDS011;26811;53.160;8.202;2022-08-20T06:59:35;49.55;;;11.85;;
41059;SDS011;26811;53.160;8.202;2022-08-20T07:04:36;54.08;;;11.80;;
41059;SDS011;26811;53.160;8.202;2022-08-20T07:09:37;52.95;;;10.32;;
41059;SDS011;26811;53.160;8.202;2022-08-20T07:14:37;36.63;;;8.30;;
41059;SDS011;26811;53.160;8.202;2022-08-20T07:19:38;38.13;;;8.98;;
41059;SDS011;26811;53.160;8.202;2022-08-20T07:24:38;39.20;;;8.13;;
41059;SDS011;26811;53.160;8.202;2022-08-20T07:29:39;37.45;;;8.18;;
41059;SDS011;26811;53.160;8.202;2022-08-20T07:34:58;37.33;;;7.63;;
41059;SDS011;26811;53.160;8.202;2022-08-20T07:39:59;51.63;;;7.47;;
41059;SDS011;26811;53.160;8.202;2022-08-20T07:45:00;43.25;;;7.13;;
41059;SDS011;26811;53.160;8.202;2022-08-20T07:50:01;29.45;;;6.90;;
41059;SDS011;26811;53.160;8.202;2022-08-20T07:55:04;29.77;;;6.53;;
41059;SDS011;26811;53.160;8.202;2022-08-20T08:00:08;31.02;;;6.38;;
41059;SDS011;26811;53.160;8.202;2022-08-20T08:05:10;25.70;;;5.82;;
41059;SDS011;26811;53.160;8.202;2022-08-20T08:10:14;25.40;;;4.20;;
41059;SDS011;26811;53.160;8.202;2022-08-20T08:15:20;31.10;;;4.75;;
41059;SDS011;26811;53.160;8.202;2022-08-20T08:20:24;25.35;;;4.00;;
41059;SDS011;26811;53.160;8.202;2022-08-20T08:25:24;17.85;;;3.42;;
41059;SDS011;26811;53.160;8.202;2022-08-20T08:30:25;22.60;;;4.05;;
41059;SDS011;26811;53.160;8.202;2022-08-20T08:35:27;28.08;;;4.65;;
41059;SDS011;26811;53.160;8.202;2022-08-20T08:40:30;17.40;;;4.20;;
41059;SDS011;26811;53.160;8.202;2022-08-20T08:45:40;26.85;;;3.78;;
41059;SDS011;26811;53.160;8.202;2022-08-20T08:50:46;21.92;;;3.70;;
41059;SDS011;26811;53.160;8.202;2022-08-20T08:55:50;29.00;;;3.70;;
41059;SDS011;26811;53.160;8.202;2022-08-20T09:00:50;32.63;;;3.60;;
41059;SDS011;26811;53.160;8.202;2022-08-20T09:05:52;17.20;;;3.37;;
41059;SDS011;26811;53.160;8.202;2022-08-20T09:10:59;22.70;;;3.15;;
41059;SDS011;26811;53.160;8.202;2022-08-20T09:16:04;23.58;;;3.35;;
41059;SDS011;26811;53.160;8.202;2022-08-20T09:21:05;17.30;;;2.90;;
41059;SDS011;26811;53.160;8.202;2022-08-20T09:26:06;12.68;;;2.60;;
41059;SDS011;26811;53.160;8.202;2022-08-20T09:31:07;21.03;;;3.07;;
41059;SDS011;26811;53.160;8.202;2022-08-20T09:36:07;15.10;;;3.33;;
41059;SDS011;26811;53.160;8.202;2022-08-20T09:41:08;17.10;;;2.58;;
41059;SDS011;26811;53.160;8.202;2022-08-20T09:46:08;22.15;;;2.85;;
41059;SDS011;26811;53.160;8.202;2022-08-20T09:51:09;25.52;;;3.05;;
41059;SDS011;26811;53.160;8.202;2022-08-20T09:56:10;19.00;;;2.80;;
41059;SDS011;26811;53.160;8.202;2022-08-20T10:01:11;16.93;;;2.40;;
41059;SDS011;26811;53.160;8.202;2022-08-20T10:06:14;12.02;;;2.33;;
41059;SDS011;26811;53.160;8.202;2022-08-20T10:11:18;19.17;;;2.33;;
41059;SDS011;26811;53.160;8.202;2022-08-20T10:16:19;15.83;;;2.40;;
41059;SDS011;26811;53.160;8.202;2022-08-20T10:21:19;13.02;;;2.40;;
41059;SDS011;26811;53.160;8.202;2022-08-20T10:26:20;12.15;;;2.80;;
41059;SDS011;26811;53.160;8.202;2022-08-20T10:31:20;17.00;;;2.47;;
41059;SDS011;26811;53.160;8.202;2022-08-20T10:36:21;15.37;;;2.10;;
41059;SDS011;26811;53.160;8.202;2022-08-20T10:41:22;15.87;;;2.20;;
41059;SDS011;26811;53.160;8.202;2022-08-20T10:46:22;16.90;;;2.67;;
41059;SDS011;26811;53.160;8.202;2022-08-20T10:51:23;15.73;;;2.40;;
41059;SDS011;26811;53.160;8.202;2022-08-20T10:56:24;11.87;;;2.23;;
41059;SDS011;26811;53.160;8.202;2022-08-20T11:01:25;22.07;;;2.43;;
41059;SDS011;26811;53.160;8.202;2022-08-20T11:06:25;15.57;;;2.60;;
41059;SDS011;26811;53.160;8.202;2022-08-20T11:11:26;12.47;;;2.27;;
41059;SDS011;26811;53.160;8.202;2022-08-20T11:16:26;11.63;;;2.30;;
41059;SDS011;26811;53.160;8.202;2022-08-20T11:21:29;19.63;;;2.53;;
41059;SDS011;26811;53.160;8.202;2022-08-20T11:26:29;15.60;;;2.70;;
41059;SDS011;26811;53.160;8.202;2022-08-20T11:31:30;11.60;;;2.00;;
41059;SDS011;26811;53.160;8.202;2022-08-20T11:36:31;13.67;;;2.57;;
41059;SDS011;26811;53.160;8.202;2022-08-20T11:41:31;16.53;;;2.27;;
41059;SDS011;26811;53.160;8.202;2022-08-20T11:46:32;17.43;;;2.50;;
41059;SDS011;26811;53.160;8.202;2022-08-20T11:51:33;14.30;;;2.30;;
41059;SDS011;26811;53.160;8.202;2022-08-20T11:56:33;18.83;;;2.77;;
41059;SDS011;26811;53.160;8.202;2022-08-20T12:01:34;11.20;;;2.30;;
41059;SDS011;26811;53.160;8.202;2022-08-20T12:06:34;18.40;;;2.50;;
41059;SDS011;26811;53.160;8.202;2022-08-20T12:11:35;13.83;;;2.13;;
41059;SDS011;26811;53.160;8.202;2022-08-20T12:16:35;13.30;;;2.30;;
41059;SDS011;26811;53.160;8.202;2022-08-20T12:21:36;16.27;;;2.77;;
41059;SDS011;26811;53.160;8.202;2022-08-20T12:26:37;11.53;;;2.43;;
41059;SDS011;26811;53.160;8.202;2022-08-20T12:31:37;10.73;;;2.47;;
41059;SDS011;26811;53.160;8.202;2022-08-20T12:36:38;12.97;;;2.43;;
41059;SDS011;26811;53.160;8.202;2022-08-20T12:41:38;13.17;;;2.67;;
41059;SDS011;26811;53.160;8.202;2022-08-20T12:46:38;17.20;;;2.47;;
41059;SDS011;26811;53.160;8.202;2022-08-20T12:51:39;15.13;;;2.33;;
41059;SDS011;26811;53.160;8.202;2022-08-20T12:56:39;11.37;;;2.00;;
41059;SDS011;26811;53.160;8.202;2022-08-20T13:01:40;10.77;;;2.17;;
41059;SDS011;26811;53.160;8.202;2022-08-20T13:06:40;13.57;;;2.87;;
41059;SDS011;26811;53.160;8.202;2022-08-20T13:11:41;15.17;;;2.23;;
41059;SDS011;26811;53.160;8.202;2022-08-20T13:16:42;12.77;;;2.67;;
41059;SDS011;26811;53.160;8.202;2022-08-20T13:21:42;15.32;;;2.00;;
41059;SDS011;26811;53.160;8.202;2022-08-20T13:26:43;9.13;;;2.08;;
41059;SDS011;26811;53.160;8.202;2022-08-20T13:31:44;13.83;;;2.17;;
41059;SDS011;26811;53.160;8.202;2022-08-20T13:36:45;8.93;;;2.00;;
41059;SDS011;26811;53.160;8.202;2022-08-20T13:41:45;15.48;;;2.05;;
41059;SDS011;26811;53.160;8.202;2022-08-20T13:46:46;10.67;;;1.90;;
41059;SDS011;26811;53.160;8.202;2022-08-20T13:51:47;11.87;;;1.90;;
41059;SDS011;26811;53.160;8.202;2022-08-20T13:56:47;4.97;;;1.50;;
41059;SDS011;26811;53.160;8.202;2022-08-20T14:01:48;7.43;;;1.77;;
41059;SDS011;26811;53.160;8.202;2022-08-20T14:06:48;7.30;;;2.03;;
41059;SDS011;26811;53.160;8.202;2022-08-20T14:11:49;9.50;;;1.90;;
41059;SDS011;26811;53.160;8.202;2022-08-20T14:16:49;10.02;;;2.05;;
41059;SDS011;26811;53.160;8.202;2022-08-20T14:21:50;8.90;;;2.55;;
41059;SDS011;26811;53.160;8.202;2022-08-20T14:26:50;10.93;;;1.60;;
41059;SDS011;26811;53.160;8.202;2022-08-20T14:31:51;8.37;;;2.07;;
41059;SDS011;26811;53.160;8.202;2022-08-20T14:36:51;5.95;;;1.60;;
41059;SDS011;26811;53.160;8.202;2022-08-20T14:41:52;11.85;;;2.10;;
41059;SDS011;26811;53.160;8.202;2022-08-20T14:46:52;16.67;;;2.23;;
41059;SDS011;26811;53.160;8.202;2022-08-20T14:51:53;12.33;;;2.47;;
41059;SDS011;26811;53.160;8.202;2022-08-20T14:56:53;6.23;;;1.80;;
41059;SDS011;26811;53.160;8.202;2022-08-20T15:01:56;7.90;;;2.00;;
41059;SDS011;26811;53.160;8.202;2022-08-20T15:06:57;8.23;;;1.90;;
41059;SDS011;26811;53.160;8.202;2022-08-20T15:11:57;7.67;;;1.90;;
41059;SDS011;26811;53.160;8.202;2022-08-20T15:16:58;7.47;;;2.60;;
41059;SDS011;26811;53.160;8.202;2022-08-20T15:21:59;8.70;;;2.00;;
41059;SDS011;26811;53.160;8.202;2022-08-20T15:27:08;6.93;;;2.30;;
41059;SDS011;26811;53.160;8.202;2022-08-20T15:32:27;11.85;;;2.40;;
41059;SDS011;26811;53.160;8.202;2022-08-20T15:37:28;10.87;;;2.57;;
41059;SDS011;26811;53.160;8.202;2022-08-20T15:42:31;24.33;;;10.98;;
41059;SDS011;26811;53.160;8.202;2022-08-20T15:47:36;6.53;;;1.83;;
41059;SDS011;26811;53.160;8.202;2022-08-20T15:52:46;12.52;;;2.50;;
41059;SDS011;26811;53.160;8.202;2022-08-20T16:13:48;10.55;;;2.28;;
41059;SDS011;26811;53.160;8.202;2022-08-20T16:18:50;10.57;;;2.33;;
41059;SDS011;26811;53.160;8.202;2022-08-20T16:34:22;6.50;;;2.50;;
41059;SDS011;26811;53.160;8.202;2022-08-20T16:39:34;5.57;;;2.25;;
41059;SDS011;26811;53.160;8.202;2022-08-20T16:44:45;15.45;;;3.35;;
41059;SDS011;26811;53.160;8.202;2022-08-20T16:49:52;11.68;;;2.65;;
41059;SDS011;26811;53.160;8.202;2022-08-20T16:55:07;12.20;;;2.60;;
41059;SDS011;26811;53.160;8.202;2022-08-20T17:05:22;12.70;;;3.05;;
41059;SDS011;26811;53.160;8.202;2022-08-20T17:10:27;10.52;;;2.90;;
41059;SDS011;26811;53.160;8.202;2022-08-20T17:15:32;14.35;;;2.92;;
41059;SDS011;26811;53.160;8.202;2022-08-20T17:20:41;16.83;;;2.67;;
41059;SDS011;26811;53.160;8.202;2022-08-20T17:25:45;14.65;;;2.30;;
41059;SDS011;26811;53.160;8.202;2022-08-20T17:30:55;10.85;;;2.60;;
41059;SDS011;26811;53.160;8.202;2022-08-20T17:35:57;14.20;;;2.30;;
41059;SDS011;26811;53.160;8.202;2022-08-20T17:41:10;14.80;;;3.05;;
41059;SDS011;26811;53.160;8.202;2022-08-20T17:46:15;15.00;;;3.85;;
41059;SDS011;26811;53.160;8.202;2022-08-20T17:51:18;22.15;;;3.90;;
41059;SDS011;26811;53.160;8.202;2022-08-20T17:56:32;15.90;;;4.72;;
41059;SDS011;26811;53.160;8.202;2022-08-20T18:01:36;16.73;;;5.93;;
41059;SDS011;26811;53.160;8.202;2022-08-20T18:06:46;17.95;;;5.53;;
41059;SDS011;26811;53.160;8.202;2022-08-20T18:22:02;12.48;;;3.90;;
41059;SDS011;26811;53.160;8.202;2022-08-20T18:27:12;29.20;;;7.80;;
41059;SDS011;26811;53.160;8.202;2022-08-20T18:32:27;19.70;;;7.18;;
41059;SDS011;26811;53.160;8.202;2022-08-20T18:37:38;22.03;;;4.43;;
41059;SDS011;26811;53.160;8.202;2022-08-20T18:42:39;11.82;;;3.92;;
41059;SDS011;26811;53.160;8.202;2022-08-20T18:47:41;20.05;;;4.43;;
41059;SDS011;26811;53.160;8.202;2022-08-20T18:52:45;20.67;;;4.05;;
41059;SDS011;26811;53.160;8.202;2022-08-20T18:57:56;18.02;;;3.83;;
41059;SDS011;26811;53.160;8.202;2022-08-20T19:08:05;19.83;;;4.00;;
41059;SDS011;26811;53.160;8.202;2022-08-20T19:18:46;17.48;;;4.72;;
41059;SDS011;26811;53.160;8.202;2022-08-20T19:23:54;19.45;;;5.13;;
41059;SDS011;26811;53.160;8.202;2022-08-20T19:29:05;22.75;;;4.43;;
41059;SDS011;26811;53.160;8.202;2022-08-20T19:34:10;11.25;;;4.20;;
41059;SDS011;26811;53.160;8.202;2022-08-20T19:39:15;15.65;;;4.38;;
41059;SDS011;26811;53.160;8.202;2022-08-20T19:44:23;21.15;;;4.22;;
41059;SDS011;26811;53.160;8.202;2022-08-20T19:49:29;20.38;;;4.22;;
41059;SDS011;26811;53.160;8.202;2022-08-20T19:54:44;13.38;;;3.92;;
41059;SDS011;26811;53.160;8.202;2022-08-20T20:00:00;15.15;;;4.50;;
41059;SDS011;26811;53.160;8.202;2022-08-20T20:05:08;16.55;;;4.60;;
41059;SDS011;26811;53.160;8.202;2022-08-20T20:10:17;17.33;;;4.70;;
41059;SDS011;26811;53.160;8.202;2022-08-20T20:15:28;20.67;;;4.95;;
41059;SDS011;26811;53.160;8.202;2022-08-20T20:20:30;19.88;;;4.70;;
41059;SDS011;26811;53.160;8.202;2022-08-20T20:30:34;21.83;;;6.43;;
41059;SDS011;26811;53.160;8.202;2022-08-20T20:35:37;27.95;;;5.93;;
41059;SDS011;26811;53.160;8.202;2022-08-20T20:40:42;27.40;;;6.47;;
41059;SDS011;26811;53.160;8.202;2022-08-20T20:45:45;26.70;;;6.40;;
41059;SDS011;26811;53.160;8.202;2022-08-20T20:50:54;29.48;;;8.20;;
41059;SDS011;26811;53.160;8.202;2022-08-20T20:55:55;26.42;;;7.90;;
41059;SDS011;26811;53.160;8.202;2022-08-20T21:00:56;21.77;;;7.60;;
41059;SDS011;26811;53.160;8.202;2022-08-20T21:05:57;18.60;;;6.28;;
41059;SDS011;26811;53.160;8.202;2022-08-20T21:10:57;24.55;;;6.28;;
41059;SDS011;26811;53.160;8.202;2022-08-20T21:15:58;15.98;;;6.57;;
41059;SDS011;26811;53.160;8.202;2022-08-20T21:20:58;23.55;;;8.90;;
41059;SDS011;26811;53.160;8.202;2022-08-20T21:25:59;25.25;;;9.63;;
41059;SDS011;26811;53.160;8.202;2022-08-20T21:31:01;31.33;;;11.67;;
41059;SDS011;26811;53.160;8.202;2022-08-20T21:36:04;29.38;;;10.90;;
41059;SDS011;26811;53.160;8.202;2022-08-20T21:41:05;31.67;;;10.80;;
41059;SDS011;26811;53.160;8.202;2022-08-20T21:46:06;31.13;;;11.05;;
41059;SDS011;26811;53.160;8.202;2022-08-20T21:51:09;22.73;;;9.63;;
41059;SDS011;26811;53.160;8.202;2022-08-20T21:56:10;28.55;;;10.02;;
41059;SDS011;26811;53.160;8.202;2022-08-20T22:01:11;28.38;;;10.45;;
41059;SDS011;26811;53.160;8.202;2022-08-20T22:06:13;28.58;;;10.23;;
41059;SDS011;26811;53.160;8.202;2022-08-20T22:11:13;28.35;;;10.60;;
41059;SDS011;26811;53.160;8.202;2022-08-20T22:16:16;39.00;;;10.85;;
41059;SDS011;26811;53.160;8.202;2022-08-20T22:21:21;30.75;;;10.35;;
41059;SDS011;26811;53.160;8.202;2022-08-20T22:26:24;31.88;;;11.73;;
41059;SDS011;26811;53.160;8.202;2022-08-20T22:31:26;26.60;;;11.10;;
41059;SDS011;26811;53.160;8.202;2022-08-20T22:36:29;27.65;;;11.15;;
41059;SDS011;26811;53.160;8.202;2022-08-20T22:41:31;31.30;;;12.10;;
41059;SDS011;26811;53.160;8.202;2022-08-20T22:46:33;31.23;;;12.90;;
41059;SDS011;26811;53.160;8.202;2022-08-20T22:51:36;29.08;;;12.52;;
41059;SDS011;26811;53.160;8.202;2022-08-20T22:56:38;28.35;;;12.80;;
41059;SDS011;26811;53.160;8.202;2022-08-20T23:01:38;29.88;;;12.10;;
41059;SDS011;26811;53.160;8.202;2022-08-20T23:06:39;36.85;;;12.98;;
41059;SDS011;26811;53.160;8.202;2022-08-20T23:11:40;26.02;;;11.77;;
41059;SDS011;26811;53.160;8.202;2022-08-20T23:16:42;29.75;;;12.15;;
41059;SDS011;26811;53.160;8.202;2022-08-20T23:21:44;34.50;;;13.38;;
41059;SDS011;26811;53.160;8.202;2022-08-20T23:26:45;23.50;;;11.80;;
41059;SDS011;26811;53.160;8.202;2022-08-20T23:31:46;33.13;;;12.90;;
41059;SDS011;26811;53.160;8.202;2022-08-20T23:36:46;31.88;;;12.13;;
41059;SDS011;26811;53.160;8.202;2022-08-20T23:41:47;24.02;;;10.77;;
41059;SDS011;26811;53.160;8.202;2022-08-20T23:46:47;35.53;;;11.30;;
41059;SDS011;26811;53.160;8.202;2022-08-20T23:51:48;30.02;;;11.43;;
41059;SDS011;26811;53.160;8.202;2022-08-20T23:56:49;28.55;;;11.25;;
